Time;durP1;ratioP1;P1;durP2;ratioP2;P2;SDS_P1;SDS_P2;PMS_P1;PMS_P2;Temp;Humidity;BMP_temperature;BMP_pressure;BME280_temperature;BME280_humidity;BME280_pressure;Samples;Min_cycle;Max_cycle;Signal;HPM_P1;HPM_P2
2023/07/26 00:01:05;;;;;;;1.50;1.40;;;;;;;;;;4975699;28;20212;-83
2023/07/26 00:03:34;;;;;;;0.50;0.50;;;;;;;;;;4975435;28;20252;-83
2023/07/26 00:06:02;;;;;;;0.63;0.63;;;;;;;;;;4975168;28;20236;-83
2023/07/26 00:08:32;;;;;;;1.40;1.30;;;;;;;;;;4975411;28;20243;-83
2023/07/26 00:11:01;;;;;;;2.83;0.80;;;;;;;;;;4975366;28;20216;-82
2023/07/26 00:13:29;;;;;;;1.53;1.10;;;;;;;;;;4974973;28;20246;-82
2023/07/26 00:15:57;;;;;;;0.70;0.70;;;;;;;;;;4975026;28;20263;-82
2023/07/26 00:18:26;;;;;;;1.90;1.80;;;;;;;;;;4975707;28;20240;-82
2023/07/26 00:20:54;;;;;;;1.73;1.63;;;;;;;;;;4974465;28;20227;-83
2023/07/26 00:23:23;;;;;;;5.03;1.30;;;;;;;;;;4975269;28;20212;-83
2023/07/26 00:25:53;;;;;;;0.47;0.47;;;;;;;;;;4974883;28;20204;-83
2023/07/26 00:28:21;;;;;;;0.40;0.40;;;;;;;;;;4975562;28;20211;-83
2023/07/26 00:30:50;;;;;;;0.80;0.80;;;;;;;;;;4974705;28;20274;-83
2023/07/26 00:33:19;;;;;;;2.57;1.33;;;;;;;;;;4974996;28;20211;-82
2023/07/26 00:35:47;;;;;;;1.63;1.43;;;;;;;;;;4974961;28;20229;-83
2023/07/26 00:38:16;;;;;;;0.40;0.40;;;;;;;;;;4975569;28;20224;-83
2023/07/26 00:40:44;;;;;;;0.70;0.70;;;;;;;;;;4974742;28;20258;-83
2023/07/26 00:43:15;;;;;;;0.70;0.70;;;;;;;;;;4974948;28;20270;-83
2023/07/26 00:45:44;;;;;;;2.50;2.30;;;;;;;;;;4974341;28;20208;-83
2023/07/26 00:48:13;;;;;;;0.77;0.77;;;;;;;;;;4973789;28;20243;-83
2023/07/26 00:50:42;;;;;;;0.43;0.43;;;;;;;;;;4974564;28;20208;-83
2023/07/26 00:53:11;;;;;;;0.70;0.70;;;;;;;;;;4974179;28;20207;-83
2023/07/26 00:55:39;;;;;;;0.80;0.80;;;;;;;;;;4973903;28;20212;-83
2023/07/26 00:58:08;;;;;;;0.40;0.40;;;;;;;;;;4973608;28;20220;-83
2023/07/26 01:00:38;;;;;;;2.93;1.03;;;;;;;;;;4973945;28;20207;-83
2023/07/26 01:03:06;;;;;;;1.20;1.10;;;;;;;;;;4974218;28;20208;-83
2023/07/26 01:05:40;;;;;;;1.50;1.43;;;;;;;;;;4973172;28;20255;-82
2023/07/26 01:08:11;;;;;;;0.77;0.77;;;;;;;;;;4974163;28;20205;-83
2023/07/26 01:10:40;;;;;;;0.50;0.50;;;;;;;;;;4973850;28;20249;-82
2023/07/26 01:13:16;;;;;;;0.40;0.40;;;;;;;;;;4973568;28;20210;-82
2023/07/26 01:15:47;;;;;;;0.80;0.80;;;;;;;;;;4973490;28;20210;-82
2023/07/26 01:18:16;;;;;;;0.40;0.40;;;;;;;;;;4973524;28;20232;-82
2023/07/26 01:20:44;;;;;;;0.57;0.57;;;;;;;;;;4973406;28;20206;-82
2023/07/26 01:23:14;;;;;;;0.50;0.50;;;;;;;;;;4973171;28;20228;-82
2023/07/26 01:25:43;;;;;;;0.40;0.40;;;;;;;;;;4972612;28;20261;-82
2023/07/26 01:28:12;;;;;;;0.40;0.40;;;;;;;;;;4973346;28;20205;-82
2023/07/26 01:30:40;;;;;;;0.40;0.40;;;;;;;;;;4973213;28;20235;-82
2023/07/26 01:33:10;;;;;;;0.40;0.40;;;;;;;;;;4973456;28;20302;-82
2023/07/26 01:35:39;;;;;;;0.40;0.40;;;;;;;;;;4973451;28;20200;-83
2023/07/26 01:38:08;;;;;;;0.40;0.40;;;;;;;;;;4973442;28;20224;-82
2023/07/26 01:40:38;;;;;;;0.40;0.40;;;;;;;;;;4973047;28;20209;-83
2023/07/26 01:43:07;;;;;;;1.20;1.00;;;;;;;;;;4973904;28;20219;-82
2023/07/26 01:45:36;;;;;;;0.50;0.50;;;;;;;;;;4973417;28;20239;-82
2023/07/26 01:48:04;;;;;;;0.40;0.40;;;;;;;;;;4973357;28;20235;-83
2023/07/26 01:50:33;;;;;;;0.40;0.40;;;;;;;;;;4973366;28;20265;-84
2023/07/26 01:53:01;;;;;;;1.17;1.17;;;;;;;;;;4972821;28;20208;-83
2023/07/26 01:55:30;;;;;;;4.63;1.27;;;;;;;;;;4973422;28;20215;-83
2023/07/26 01:57:59;;;;;;;0.50;0.50;;;;;;;;;;4972500;28;20227;-83
2023/07/26 02:00:28;;;;;;;0.97;0.50;;;;;;;;;;4972990;28;20204;-83
2023/07/26 02:02:57;;;;;;;0.63;0.63;;;;;;;;;;4972919;28;20306;-83
2023/07/26 02:05:25;;;;;;;0.40;0.40;;;;;;;;;;4972363;28;20286;-83
2023/07/26 02:07:54;;;;;;;0.60;0.60;;;;;;;;;;4972522;28;20210;-83
2023/07/26 02:10:23;;;;;;;0.40;0.40;;;;;;;;;;4973067;28;20267;-83
2023/07/26 02:12:51;;;;;;;0.40;0.40;;;;;;;;;;4973219;28;20208;-83
2023/07/26 02:15:21;;;;;;;0.57;0.57;;;;;;;;;;4972827;28;20202;-83
2023/07/26 02:17:50;;;;;;;0.40;0.40;;;;;;;;;;4973546;28;20246;-83
2023/07/26 02:20:18;;;;;;;0.40;0.40;;;;;;;;;;4973600;28;20208;-83
2023/07/26 02:22:47;;;;;;;0.40;0.40;;;;;;;;;;4972850;28;20212;-83
2023/07/26 02:25:16;;;;;;;0.40;0.40;;;;;;;;;;4973019;28;20236;-83
2023/07/26 02:27:44;;;;;;;0.40;0.40;;;;;;;;;;4973324;28;20299;-83
2023/07/26 02:30:13;;;;;;;0.47;0.47;;;;;;;;;;4972885;28;20219;-82
2023/07/26 02:32:43;;;;;;;0.40;0.40;;;;;;;;;;4972573;28;20219;-83
2023/07/26 02:35:11;;;;;;;0.40;0.40;;;;;;;;;;4972399;28;20201;-83
2023/07/26 02:37:40;;;;;;;0.40;0.40;;;;;;;;;;4974011;28;20263;-83
2023/07/26 02:40:09;;;;;;;0.63;0.63;;;;;;;;;;4976572;28;20296;-83
2023/07/26 02:42:37;;;;;;;0.40;0.40;;;;;;;;;;4976549;28;20204;-83
2023/07/26 02:45:06;;;;;;;0.40;0.40;;;;;;;;;;4976325;28;20263;-82
2023/07/26 02:47:35;;;;;;;0.50;0.50;;;;;;;;;;4977027;28;20208;-83
2023/07/26 02:50:05;;;;;;;0.40;0.40;;;;;;;;;;4975952;28;20197;-82
2023/07/26 02:52:34;;;;;;;0.40;0.40;;;;;;;;;;4976987;28;20204;-83
2023/07/26 02:55:02;;;;;;;0.40;0.40;;;;;;;;;;4976751;28;20260;-83
2023/07/26 02:57:31;;;;;;;0.30;0.30;;;;;;;;;;4976509;28;20240;-83
2023/07/26 02:59:59;;;;;;;0.40;0.40;;;;;;;;;;4976343;28;20204;-82
2023/07/26 03:02:28;;;;;;;0.40;0.40;;;;;;;;;;4976175;28;20230;-82
2023/07/26 03:04:56;;;;;;;0.40;0.40;;;;;;;;;;4976575;28;20210;-82
2023/07/26 03:07:26;;;;;;;0.40;0.40;;;;;;;;;;4976264;28;20293;-82
2023/07/26 03:09:55;;;;;;;0.30;0.30;;;;;;;;;;4976077;28;20224;-83
2023/07/26 03:12:23;;;;;;;0.40;0.40;;;;;;;;;;4976185;28;20227;-82
2023/07/26 03:14:52;;;;;;;0.40;0.40;;;;;;;;;;4976108;28;20220;-83
2023/07/26 03:17:21;;;;;;;0.30;0.30;;;;;;;;;;4975606;28;20205;-83
2023/07/26 03:19:51;;;;;;;0.30;0.30;;;;;;;;;;4975847;28;20225;-83
2023/07/26 03:22:19;;;;;;;0.40;0.40;;;;;;;;;;4976005;28;20210;-83
2023/07/26 03:24:49;;;;;;;0.40;0.40;;;;;;;;;;4975369;28;20209;-83
2023/07/26 03:27:18;;;;;;;0.40;0.40;;;;;;;;;;4975609;28;20203;-83
2023/07/26 03:29:47;;;;;;;0.40;0.40;;;;;;;;;;4975662;28;20212;-83
2023/07/26 03:32:16;;;;;;;0.50;0.50;;;;;;;;;;4975713;28;20212;-83
2023/07/26 03:34:44;;;;;;;0.33;0.33;;;;;;;;;;4975088;28;20212;-83
2023/07/26 03:37:13;;;;;;;0.40;0.40;;;;;;;;;;4975639;28;20209;-83
2023/07/26 03:39:41;;;;;;;0.30;0.30;;;;;;;;;;4975473;28;20219;-84
2023/07/26 03:42:11;;;;;;;0.40;0.40;;;;;;;;;;4975637;28;20212;-84
2023/07/26 03:44:39;;;;;;;0.30;0.30;;;;;;;;;;4974994;28;20204;-83
2023/07/26 03:47:10;;;;;;;0.30;0.30;;;;;;;;;;4975578;28;20201;-83
2023/07/26 03:49:38;;;;;;;0.40;0.40;;;;;;;;;;4974297;28;20205;-83
2023/07/26 03:52:07;;;;;;;0.40;0.40;;;;;;;;;;4975376;28;20200;-83
2023/07/26 03:54:36;;;;;;;0.30;0.30;;;;;;;;;;4975081;28;20252;-83
2023/07/26 03:57:04;;;;;;;0.50;0.50;;;;;;;;;;4975661;28;20204;-83
2023/07/26 03:59:34;;;;;;;0.40;0.40;;;;;;;;;;4974749;28;20220;-83
2023/07/26 04:02:03;;;;;;;0.67;0.67;;;;;;;;;;4974989;28;20212;-83
2023/07/26 04:04:32;;;;;;;0.50;0.50;;;;;;;;;;4974932;28;20204;-83
2023/07/26 04:07:01;;;;;;;0.40;0.40;;;;;;;;;;4974961;28;20249;-83
2023/07/26 04:09:29;;;;;;;5.93;1.30;;;;;;;;;;4974288;28;20245;-83
2023/07/26 04:11:58;;;;;;;0.80;0.80;;;;;;;;;;4975136;28;20250;-83
2023/07/26 04:14:27;;;;;;;0.43;0.43;;;;;;;;;;4974675;28;20223;-83
2023/07/26 04:16:57;;;;;;;1.20;0.83;;;;;;;;;;4974645;28;20211;-83
2023/07/26 04:19:25;;;;;;;0.30;0.30;;;;;;;;;;4974635;28;20224;-83
2023/07/26 04:21:54;;;;;;;0.40;0.40;;;;;;;;;;4975183;28;20300;-83
2023/07/26 04:24:22;;;;;;;0.63;0.63;;;;;;;;;;4974492;28;20209;-83
2023/07/26 04:26:52;;;;;;;0.50;0.50;;;;;;;;;;4974524;28;20270;-83
2023/07/26 04:29:20;;;;;;;0.40;0.40;;;;;;;;;;4974584;28;20205;-82
2023/07/26 04:31:49;;;;;;;0.63;0.63;;;;;;;;;;4975123;28;20209;-82
2023/07/26 04:34:19;;;;;;;0.40;0.40;;;;;;;;;;4974172;28;20201;-82
2023/07/26 04:36:47;;;;;;;1.70;0.87;;;;;;;;;;4973970;28;20203;-82
2023/07/26 04:39:16;;;;;;;4.43;0.83;;;;;;;;;;4974377;28;20216;-82
2023/07/26 04:41:44;;;;;;;4.80;4.37;;;;;;;;;;4974728;28;20236;-82
2023/07/26 04:44:13;;;;;;;0.60;0.60;;;;;;;;;;4973756;28;20218;-83
2023/07/26 04:46:41;;;;;;;0.57;0.57;;;;;;;;;;4974427;28;20224;-83
2023/07/26 04:49:10;;;;;;;4.67;1.87;;;;;;;;;;4974388;28;20201;-83
2023/07/26 04:51:40;;;;;;;4.47;2.23;;;;;;;;;;4974067;28;20265;-83
2023/07/26 04:54:08;;;;;;;3.33;2.30;;;;;;;;;;4974244;28;20213;-82
2023/07/26 04:56:37;;;;;;;1.30;1.17;;;;;;;;;;4973709;28;20211;-83
2023/07/26 04:59:05;;;;;;;0.70;0.70;;;;;;;;;;4974540;28;20227;-83
2023/07/26 05:01:34;;;;;;;2.17;1.13;;;;;;;;;;4973490;28;20219;-86
2023/07/26 05:04:03;;;;;;;1.50;1.40;;;;;;;;;;4974506;28;20239;-87
2023/07/26 05:06:31;;;;;;;0.67;0.67;;;;;;;;;;4974256;28;20258;-87
2023/07/26 05:09:01;;;;;;;1.57;1.47;;;;;;;;;;4973768;28;20321;-87
2023/07/26 05:11:30;;;;;;;0.53;0.53;;;;;;;;;;4974175;28;20210;-87
2023/07/26 05:13:58;;;;;;;0.40;0.40;;;;;;;;;;4974466;28;20208;-87
2023/07/26 05:16:27;;;;;;;0.50;0.50;;;;;;;;;;4974866;28;20218;-87
2023/07/26 05:18:58;;;;;;;0.80;0.80;;;;;;;;;;4973287;28;20210;-86
2023/07/26 05:21:29;;;;;;;0.50;0.50;;;;;;;;;;4977323;28;20216;-92
2023/07/26 05:23:58;;;;;;;0.40;0.40;;;;;;;;;;4977299;28;20205;-93
2023/07/26 05:26:28;;;;;;;0.50;0.50;;;;;;;;;;4975115;28;20197;-89
2023/07/26 05:28:56;;;;;;;0.50;0.50;;;;;;;;;;4974987;28;20202;-89
2023/07/26 05:31:25;;;;;;;0.47;0.47;;;;;;;;;;4974637;28;20250;-89
2023/07/26 05:33:53;;;;;;;0.50;0.50;;;;;;;;;;4974573;28;20209;-89
2023/07/26 05:36:22;;;;;;;0.50;0.50;;;;;;;;;;4973783;28;20203;-88
2023/07/26 05:38:50;;;;;;;0.40;0.40;;;;;;;;;;4973966;28;20202;-88
2023/07/26 05:41:19;;;;;;;0.50;0.50;;;;;;;;;;4973709;28;20229;-88
2023/07/26 05:43:49;;;;;;;0.50;0.50;;;;;;;;;;4973975;28;20213;-88
2023/07/26 05:46:17;;;;;;;0.50;0.50;;;;;;;;;;4973891;28;20208;-88
2023/07/26 05:48:46;;;;;;;0.50;0.50;;;;;;;;;;4974116;28;20303;-88
2023/07/26 05:51:14;;;;;;;0.50;0.50;;;;;;;;;;4973835;28;20193;-88
2023/07/26 05:53:43;;;;;;;0.40;0.40;;;;;;;;;;4973686;28;20209;-88
2023/07/26 05:56:13;;;;;;;0.40;0.40;;;;;;;;;;4973704;28;20243;-87
2023/07/26 05:58:42;;;;;;;0.50;0.50;;;;;;;;;;4973897;28;20198;-87
2023/07/26 06:01:15;;;;;;;0.50;0.50;;;;;;;;;;4973081;28;20214;-87
2023/07/26 06:03:44;;;;;;;0.43;0.43;;;;;;;;;;4973304;28;20201;-87
2023/07/26 06:06:12;;;;;;;0.50;0.50;;;;;;;;;;4973717;28;20231;-87
2023/07/26 06:08:41;;;;;;;0.50;0.50;;;;;;;;;;4973942;28;20206;-88
2023/07/26 06:11:09;;;;;;;0.40;0.40;;;;;;;;;;4973028;28;20207;-87
2023/07/26 06:13:38;;;;;;;0.40;0.40;;;;;;;;;;4973381;28;20224;-87
2023/07/26 06:16:07;;;;;;;0.40;0.40;;;;;;;;;;4973570;28;20203;-87
2023/07/26 06:18:37;;;;;;;0.40;0.40;;;;;;;;;;4974128;28;20280;-87
2023/07/26 06:21:05;;;;;;;0.40;0.40;;;;;;;;;;4973600;28;20216;-88
2023/07/26 06:23:34;;;;;;;0.43;0.43;;;;;;;;;;4974063;28;20210;-87
2023/07/26 06:26:03;;;;;;;0.47;0.47;;;;;;;;;;4974162;28;20305;-87
2023/07/26 06:28:32;;;;;;;0.40;0.40;;;;;;;;;;4973666;28;20203;-87
2023/07/26 06:31:00;;;;;;;0.40;0.40;;;;;;;;;;4973866;28;20211;-87
2023/07/26 06:33:29;;;;;;;0.40;0.40;;;;;;;;;;4973612;28;20207;-88
2023/07/26 06:36:01;;;;;;;0.40;0.40;;;;;;;;;;4973156;28;20232;-88
2023/07/26 06:38:29;;;;;;;0.50;0.50;;;;;;;;;;4973702;28;20217;-88
2023/07/26 06:40:58;;;;;;;0.40;0.40;;;;;;;;;;4973277;28;20223;-88
2023/07/26 06:43:26;;;;;;;0.40;0.40;;;;;;;;;;4973112;28;20206;-87
2023/07/26 06:45:55;;;;;;;0.40;0.40;;;;;;;;;;4972663;28;20216;-87
2023/07/26 06:48:23;;;;;;;0.40;0.40;;;;;;;;;;4973216;28;20245;-87
2023/07/26 06:50:55;;;;;;;0.40;0.40;;;;;;;;;;4972071;28;20199;-83
2023/07/26 06:53:27;;;;;;;0.40;0.40;;;;;;;;;;4961709;28;20231;-89
2023/07/26 06:55:58;;;;;;;0.40;0.40;;;;;;;;;;4963608;28;20220;-88
2023/07/26 06:58:27;;;;;;;0.40;0.40;;;;;;;;;;4965445;28;20295;-88
2023/07/26 07:00:56;;;;;;;0.40;0.40;;;;;;;;;;4963974;28;20267;-91
2023/07/26 07:03:25;;;;;;;0.40;0.40;;;;;;;;;;4970170;28;20282;-84
2023/07/26 07:05:56;;;;;;;0.40;0.40;;;;;;;;;;4969313;28;20327;-85
2023/07/26 07:08:26;;;;;;;0.40;0.40;;;;;;;;;;4970046;28;20231;-85
2023/07/26 07:10:55;;;;;;;0.40;0.40;;;;;;;;;;4969694;28;20289;-85
2023/07/26 07:13:23;;;;;;;0.40;0.40;;;;;;;;;;4970697;28;20226;-85
2023/07/26 07:15:52;;;;;;;0.40;0.40;;;;;;;;;;4970105;28;20271;-84
2023/07/26 07:18:21;;;;;;;0.40;0.40;;;;;;;;;;4969625;28;20227;-84
2023/07/26 07:20:56;;;;;;;0.40;0.40;;;;;;;;;;4970086;28;20228;-84
2023/07/26 07:23:25;;;;;;;0.40;0.40;;;;;;;;;;4967271;28;20231;-84
2023/07/26 07:25:55;;;;;;;0.40;0.40;;;;;;;;;;4982265;28;20220;-84
2023/07/26 07:28:23;;;;;;;0.30;0.30;;;;;;;;;;4981522;28;20225;-85
2023/07/26 07:30:52;;;;;;;0.40;0.40;;;;;;;;;;4980754;28;20252;-84
2023/07/26 07:33:21;;;;;;;0.40;0.40;;;;;;;;;;4977136;28;20241;-86
2023/07/26 07:35:52;;;;;;;0.33;0.33;;;;;;;;;;4978172;28;20220;-86
2023/07/26 07:38:21;;;;;;;0.40;0.40;;;;;;;;;;4984091;28;20314;-85
2023/07/26 07:40:50;;;;;;;0.60;0.60;;;;;;;;;;4975037;28;20232;-85
2023/07/26 07:43:20;;;;;;;0.40;0.40;;;;;;;;;;4981624;28;20335;-85
2023/07/26 07:45:48;;;;;;;0.30;0.30;;;;;;;;;;4984742;28;20208;-83
2023/07/26 07:48:17;;;;;;;0.40;0.40;;;;;;;;;;4982640;28;20279;-85
2023/07/26 07:50:46;;;;;;;0.30;0.30;;;;;;;;;;4985253;28;20220;-84
2023/07/26 07:53:17;;;;;;;0.40;0.40;;;;;;;;;;4982328;28;20228;-83
2023/07/26 07:55:48;;;;;;;0.40;0.40;;;;;;;;;;4982162;28;20301;-84
2023/07/26 07:58:16;;;;;;;0.40;0.40;;;;;;;;;;4987139;28;20279;-83
2023/07/26 08:00:46;;;;;;;0.30;0.30;;;;;;;;;;4981979;28;20239;-86
2023/07/26 08:03:15;;;;;;;0.30;0.30;;;;;;;;;;4981597;28;20218;-86
2023/07/26 08:05:44;;;;;;;0.30;0.30;;;;;;;;;;4980453;28;20248;-86
2023/07/26 08:08:12;;;;;;;0.30;0.30;;;;;;;;;;4982911;28;20235;-86
2023/07/26 08:10:41;;;;;;;0.30;0.30;;;;;;;;;;4982312;28;20239;-85
2023/07/26 08:13:15;;;;;;;0.30;0.30;;;;;;;;;;4973232;28;20232;-86
2023/07/26 08:15:44;;;;;;;0.30;0.30;;;;;;;;;;4964898;28;20236;-86
2023/07/26 08:18:16;;;;;;;0.40;0.40;;;;;;;;;;4971235;28;20247;-86
2023/07/26 08:20:48;;;;;;;0.30;0.30;;;;;;;;;;4963645;28;20323;-90
2023/07/26 08:23:17;;;;;;;0.40;0.40;;;;;;;;;;4966937;28;20245;-89
2023/07/26 08:25:46;;;;;;;0.40;0.40;;;;;;;;;;4962721;28;20228;-89
2023/07/26 08:28:14;;;;;;;0.40;0.40;;;;;;;;;;4957300;28;20240;-88
2023/07/26 08:30:43;;;;;;;0.30;0.30;;;;;;;;;;4963762;28;20221;-88
2023/07/26 08:33:12;;;;;;;0.30;0.30;;;;;;;;;;4966104;28;20316;-87
2023/07/26 08:35:42;;;;;;;0.80;0.80;;;;;;;;;;4963944;28;20305;-89
2023/07/26 08:38:12;;;;;;;0.30;0.30;;;;;;;;;;4963888;28;20237;-89
2023/07/26 08:40:44;;;;;;;0.30;0.30;;;;;;;;;;4963765;28;20213;-89
2023/07/26 08:43:14;;;;;;;0.30;0.30;;;;;;;;;;4962551;28;20227;-87
2023/07/26 08:45:43;;;;;;;0.30;0.30;;;;;;;;;;4968234;28;20209;-87
2023/07/26 08:48:12;;;;;;;0.30;0.30;;;;;;;;;;4969607;28;20237;-82
2023/07/26 08:50:42;;;;;;;0.30;0.30;;;;;;;;;;4968446;28;20216;-83
2023/07/26 08:53:12;;;;;;;0.30;0.30;;;;;;;;;;4971644;28;20241;-82
2023/07/26 08:55:41;;;;;;;0.30;0.30;;;;;;;;;;4972816;28;20248;-83
2023/07/26 08:58:11;;;;;;;0.30;0.30;;;;;;;;;;4974314;28;20220;-90
2023/07/26 09:00:40;;;;;;;0.30;0.30;;;;;;;;;;4978272;28;20205;-90
2023/07/26 09:03:11;;;;;;;0.30;0.30;;;;;;;;;;4971006;28;20226;-90
2023/07/26 09:05:42;;;;;;;0.30;0.30;;;;;;;;;;4974090;28;20248;-90
2023/07/26 09:08:11;;;;;;;1.80;1.80;;;;;;;;;;4977743;28;20212;-89
2023/07/26 09:10:40;;;;;;;0.40;0.40;;;;;;;;;;4988654;28;20230;-88
2023/07/26 09:13:09;;;;;;;0.30;0.30;;;;;;;;;;4972943;28;20239;-91
2023/07/26 09:15:39;;;;;;;0.30;0.30;;;;;;;;;;4973851;28;20210;-90
2023/07/26 09:18:08;;;;;;;0.30;0.30;;;;;;;;;;4973430;28;20218;-89
2023/07/26 09:20:40;;;;;;;0.30;0.30;;;;;;;;;;4970434;28;20227;-88
2023/07/26 09:23:11;;;;;;;0.30;0.30;;;;;;;;;;4972882;28;20229;-87
2023/07/26 09:25:41;;;;;;;0.30;0.30;;;;;;;;;;4973179;28;20290;-88
2023/07/26 09:28:10;;;;;;;0.30;0.30;;;;;;;;;;4973689;28;20219;-88
2023/07/26 09:30:39;;;;;;;0.30;0.30;;;;;;;;;;4990332;28;20212;-86
2023/07/26 09:33:08;;;;;;;0.30;0.30;;;;;;;;;;4982856;28;20208;-89
2023/07/26 09:35:43;;;;;;;0.40;0.40;;;;;;;;;;4974479;28;20255;-89
2023/07/26 09:38:14;;;;;;;0.30;0.30;;;;;;;;;;4972991;28;20207;-90
2023/07/26 09:40:42;;;;;;;0.30;0.30;;;;;;;;;;4973597;28;20237;-89
2023/07/26 09:43:11;;;;;;;0.30;0.30;;;;;;;;;;4974427;28;20227;-89
2023/07/26 09:45:40;;;;;;;0.30;0.30;;;;;;;;;;4974434;28;20321;-89
2023/07/26 09:48:10;;;;;;;0.30;0.30;;;;;;;;;;4972799;28;20200;-89
2023/07/26 09:50:43;;;;;;;0.30;0.30;;;;;;;;;;4972789;28;20210;-88
2023/07/26 09:53:14;;;;;;;0.30;0.30;;;;;;;;;;4973530;28;20201;-89
2023/07/26 09:55:43;;;;;;;0.30;0.30;;;;;;;;;;4970997;28;20215;-89
2023/07/26 09:58:31;;;;;;;0.30;0.30;;;;;;;;;;4979960;28;20225;-88
2023/07/26 10:01:02;;;;;;;0.30;0.30;;;;;;;;;;4994585;28;20200;-89
2023/07/26 10:03:31;;;;;;;1.17;1.07;;;;;;;;;;4987458;28;20217;-90
2023/07/26 10:06:01;;;;;;;2.33;1.77;;;;;;;;;;4975022;28;20319;-90
2023/07/26 10:08:31;;;;;;;5.10;2.17;;;;;;;;;;4977466;28;20280;-92
2023/07/26 10:11:00;;;;;;;2.20;1.57;;;;;;;;;;4977270;28;20208;-90
2023/07/26 10:13:30;;;;;;;4.43;1.50;;;;;;;;;;4977910;28;20212;-89
2023/07/26 10:16:00;;;;;;;1.80;1.67;;;;;;;;;;4976270;28;20246;-91
2023/07/26 10:18:30;;;;;;;1.97;1.80;;;;;;;;;;4976615;28;20275;-90
2023/07/26 10:21:02;;;;;;;3.33;3.07;;;;;;;;;;4964527;28;20236;-89
2023/07/26 10:23:35;;;;;;;1.93;1.83;;;;;;;;;;4955772;28;20226;-88
2023/07/26 10:26:05;;;;;;;2.17;1.87;;;;;;;;;;4971411;28;20207;-87
2023/07/26 10:28:35;;;;;;;2.30;2.10;;;;;;;;;;4973445;28;20205;-88
2023/07/26 10:31:04;;;;;;;2.50;1.63;;;;;;;;;;4973797;28;20324;-91
2023/07/26 10:33:33;;;;;;;1.80;1.63;;;;;;;;;;4975286;28;20245;-94
2023/07/26 10:36:04;;;;;;;3.13;2.60;;;;;;;;;;4974144;28;20210;-93
2023/07/26 10:38:39;;;;;;;4.20;1.93;;;;;;;;;;4974421;28;20234;-91
2023/07/26 10:41:27;;;;;;;3.27;1.90;;;;;;;;;;4974042;28;20219;-88
2023/07/26 10:44:05;;;;;;;4.77;3.17;;;;;;;;;;4972957;28;20237;-88
2023/07/26 10:46:48;;;;;;;2.43;2.07;;;;;;;;;;4974222;28;20204;-90
2023/07/26 10:49:20;;;;;;;9.53;2.77;;;;;;;;;;4973187;28;20260;-87
2023/07/26 10:51:56;;;;;;;4.33;2.77;;;;;;;;;;4972576;28;20241;-87
2023/07/26 10:54:36;;;;;;;3.50;2.73;;;;;;;;;;4961493;28;20221;-88
2023/07/26 10:57:26;;;;;;;5.73;3.57;;;;;;;;;;4975541;28;20210;-86
2023/07/26 11:00:00;;;;;;;2.30;1.83;;;;;;;;;;4972244;28;20270;-87
2023/07/26 11:02:34;;;;;;;3.97;3.10;;;;;;;;;;4975769;28;20227;-87
2023/07/26 11:05:03;;;;;;;3.90;2.60;;;;;;;;;;4976029;28;20203;-87
2023/07/26 11:07:52;;;;;;;3.73;2.47;;;;;;;;;;4978083;28;20221;-88
2023/07/26 11:10:22;;;;;;;3.40;2.47;;;;;;;;;;4975951;28;20240;-85
2023/07/26 11:12:52;;;;;;;3.87;2.30;;;;;;;;;;4975643;28;20214;-86
2023/07/26 11:15:30;;;;;;;6.50;4.27;;;;;;;;;;4977496;28;20213;-86
2023/07/26 11:18:19;;;;;;;3.20;2.53;;;;;;;;;;4971390;28;20269;-87
2023/07/26 11:20:48;;;;;;;3.97;3.47;;;;;;;;;;4976266;28;20222;-88
2023/07/26 11:23:18;;;;;;;3.23;2.93;;;;;;;;;;4981619;28;20242;-87
2023/07/26 11:25:48;;;;;;;2.63;2.20;;;;;;;;;;4979851;28;20212;-88
2023/07/26 11:28:17;;;;;;;6.27;2.97;;;;;;;;;;4979432;28;20211;-90
2023/07/26 11:30:47;;;;;;;4.87;2.70;;;;;;;;;;4977745;28;20202;-88
2023/07/26 11:33:26;;;;;;;10.37;1.83;;;;;;;;;;4980552;28;20207;-87
2023/07/26 11:35:54;;;;;;;5.50;1.93;;;;;;;;;;4980119;28;20218;-86
2023/07/26 11:38:23;;;;;;;4.30;2.27;;;;;;;;;;4975340;28;20191;-86
2023/07/26 11:40:54;;;;;;;9.27;4.30;;;;;;;;;;4979032;28;20198;-88
2023/07/26 11:43:23;;;;;;;4.37;3.07;;;;;;;;;;4974858;28;20226;-86
2023/07/26 11:45:51;;;;;;;4.30;2.37;;;;;;;;;;4973950;28;20215;-87
2023/07/26 11:48:20;;;;;;;6.73;3.37;;;;;;;;;;4973137;28;20222;-87
2023/07/26 11:50:49;;;;;;;7.43;2.40;;;;;;;;;;4986900;28;20221;-87
2023/07/26 11:53:18;;;;;;;7.37;3.27;;;;;;;;;;4982491;28;20205;-87
2023/07/26 11:56:08;;;;;;;1.77;1.67;;;;;;;;;;4980665;28;20223;-88
2023/07/26 11:58:37;;;;;;;3.40;2.67;;;;;;;;;;4973546;28;20274;-88
2023/07/26 12:01:06;;;;;;;2.53;2.13;;;;;;;;;;4977838;28;20272;-86
2023/07/26 12:03:34;;;;;;;4.63;1.90;;;;;;;;;;4974810;28;20212;-90
2023/07/26 12:06:04;;;;;;;3.57;2.33;;;;;;;;;;4974763;28;20263;-85
2023/07/26 12:08:37;;;;;;;2.33;1.90;;;;;;;;;;4972446;28;20229;-85
2023/07/26 12:11:09;;;;;;;3.40;3.10;;;;;;;;;;4973603;28;20277;-85
2023/07/26 12:13:38;;;;;;;2.63;2.40;;;;;;;;;;4975357;28;20201;-84
2023/07/26 12:16:10;;;;;;;5.63;3.07;;;;;;;;;;4975376;28;20291;-85
2023/07/26 12:18:49;;;;;;;7.30;2.80;;;;;;;;;;4974705;28;20209;-85
2023/07/26 12:21:23;;;;;;;1.90;1.53;;;;;;;;;;4974929;28;20204;-82
2023/07/26 12:23:52;;;;;;;2.73;2.07;;;;;;;;;;4975084;28;20228;-82
2023/07/26 12:26:23;;;;;;;7.17;3.43;;;;;;;;;;4974649;28;20293;-85
2023/07/26 12:28:53;;;;;;;4.33;2.53;;;;;;;;;;4974510;28;20213;-85
2023/07/26 12:31:22;;;;;;;2.60;1.07;;;;;;;;;;4974962;28;20205;-82
2023/07/26 12:33:57;;;;;;;3.53;2.23;;;;;;;;;;4974560;28;20206;-82
2023/07/26 12:36:28;;;;;;;1.97;1.77;;;;;;;;;;4974376;28;20262;-82
2023/07/26 12:38:56;;;;;;;3.03;1.97;;;;;;;;;;4974595;28;20220;-82
2023/07/26 12:41:26;;;;;;;3.90;2.73;;;;;;;;;;4974096;28;20214;-82
2023/07/26 12:43:55;;;;;;;3.63;2.03;;;;;;;;;;4973732;28;20226;-82
2023/07/26 12:46:24;;;;;;;2.90;1.60;;;;;;;;;;4974163;28;20195;-82
2023/07/26 12:48:54;;;;;;;2.33;1.70;;;;;;;;;;4974376;28;20254;-82
2023/07/26 12:51:23;;;;;;;4.53;2.33;;;;;;;;;;4974208;28;20235;-81
2023/07/26 12:53:51;;;;;;;4.63;2.10;;;;;;;;;;4974795;28;20320;-83
2023/07/26 12:56:20;;;;;;;3.77;2.43;;;;;;;;;;4974152;28;20246;-83
2023/07/26 12:58:50;;;;;;;1.47;1.37;;;;;;;;;;4973972;28;20300;-83
2023/07/26 13:01:34;;;;;;;4.47;2.10;;;;;;;;;;4973623;28;20210;-82
2023/07/26 13:04:03;;;;;;;2.30;2.10;;;;;;;;;;4974026;28;20289;-83
2023/07/26 13:06:32;;;;;;;2.27;1.97;;;;;;;;;;4974274;28;20222;-82
2023/07/26 13:09:01;;;;;;;4.27;2.60;;;;;;;;;;4973612;28;20232;-79
2023/07/26 13:11:29;;;;;;;3.27;1.93;;;;;;;;;;4973378;28;20252;-82
2023/07/26 13:13:59;;;;;;;3.53;2.63;;;;;;;;;;4974000;28;20295;-82
2023/07/26 13:16:28;;;;;;;4.33;3.17;;;;;;;;;;4973557;28;20214;-82
2023/07/26 13:19:00;;;;;;;5.30;2.57;;;;;;;;;;4973252;28;20304;-83
2023/07/26 13:21:29;;;;;;;1.87;1.53;;;;;;;;;;4973292;28;20201;-82
2023/07/26 13:23:58;;;;;;;5.10;3.00;;;;;;;;;;4973660;28;20217;-82
2023/07/26 13:26:26;;;;;;;4.90;2.67;;;;;;;;;;4973041;28;20216;-82
2023/07/26 13:28:55;;;;;;;4.13;2.73;;;;;;;;;;4973226;28;20215;-82
2023/07/26 13:31:25;;;;;;;3.00;2.70;;;;;;;;;;4973591;28;20202;-82
2023/07/26 13:33:53;;;;;;;2.13;1.83;;;;;;;;;;4973668;28;20193;-82
2023/07/26 13:36:22;;;;;;;1.93;1.47;;;;;;;;;;4972828;28;20329;-82
2023/07/26 13:38:56;;;;;;;2.50;2.13;;;;;;;;;;4973285;28;20211;-85
2023/07/26 13:41:24;;;;;;;3.20;2.37;;;;;;;;;;4973646;28;20210;-85
2023/07/26 13:43:53;;;;;;;4.10;2.80;;;;;;;;;;4973237;28;20232;-85
2023/07/26 13:46:21;;;;;;;2.00;1.80;;;;;;;;;;4973311;28;20276;-85
2023/07/26 13:49:04;;;;;;;3.17;2.33;;;;;;;;;;4973840;28;20210;-85
2023/07/26 13:51:32;;;;;;;4.03;1.97;;;;;;;;;;4973382;28;20201;-86
2023/07/26 13:54:01;;;;;;;3.10;2.33;;;;;;;;;;4973252;28;20204;-87
2023/07/26 13:56:29;;;;;;;7.97;3.23;;;;;;;;;;4973515;28;20210;-87
2023/07/26 13:58:59;;;;;;;4.43;4.03;;;;;;;;;;4973709;28;20205;-87
2023/07/26 14:01:28;;;;;;;2.43;2.13;;;;;;;;;;4973484;28;20231;-86
2023/07/26 14:03:56;;;;;;;3.43;2.17;;;;;;;;;;4973384;28;20228;-85
2023/07/26 14:06:27;;;;;;;2.60;2.07;;;;;;;;;;4973083;28;20232;-85
2023/07/26 14:08:55;;;;;;;5.43;3.20;;;;;;;;;;4973197;28;21326;-82
2023/07/26 14:11:25;;;;;;;4.23;2.30;;;;;;;;;;4972337;28;20198;-82
2023/07/26 14:13:54;;;;;;;3.03;2.40;;;;;;;;;;4972435;28;20282;-82
2023/07/26 14:16:22;;;;;;;4.87;2.73;;;;;;;;;;4972980;28;20209;-82
2023/07/26 14:18:51;;;;;;;3.23;2.77;;;;;;;;;;4972700;28;20208;-82
2023/07/26 14:21:19;;;;;;;2.33;1.70;;;;;;;;;;4973109;28;20203;-82
2023/07/26 14:23:49;;;;;;;4.00;2.47;;;;;;;;;;4972663;28;20207;-82
2023/07/26 14:26:18;;;;;;;3.73;2.20;;;;;;;;;;4972529;28;20205;-83
2023/07/26 14:28:46;;;;;;;3.43;3.13;;;;;;;;;;4972825;28;20209;-83
2023/07/26 14:31:15;;;;;;;4.07;1.80;;;;;;;;;;4972637;28;20235;-83
2023/07/26 14:33:44;;;;;;;1.83;1.70;;;;;;;;;;4974914;28;20254;-83
2023/07/26 14:36:12;;;;;;;3.07;1.60;;;;;;;;;;4976545;28;20256;-84
2023/07/26 14:38:41;;;;;;;3.13;1.90;;;;;;;;;;4976625;28;20205;-84
2023/07/26 14:41:11;;;;;;;5.47;2.23;;;;;;;;;;4977301;28;20209;-84
2023/07/26 14:43:40;;;;;;;3.20;1.80;;;;;;;;;;4977073;28;20215;-84
2023/07/26 14:46:08;;;;;;;2.60;2.10;;;;;;;;;;4975843;28;20225;-84
2023/07/26 14:48:37;;;;;;;2.10;1.73;;;;;;;;;;4976509;28;20205;-84
2023/07/26 14:51:06;;;;;;;4.67;1.90;;;;;;;;;;4976914;28;20212;-84
2023/07/26 14:53:34;;;;;;;2.60;2.40;;;;;;;;;;4976592;28;20208;-84
2023/07/26 14:56:02;;;;;;;7.00;3.13;;;;;;;;;;4976015;28;20212;-83
2023/07/26 14:58:32;;;;;;;4.70;2.67;;;;;;;;;;4976721;28;20212;-84